createdAt,value
2023-01-08T00:01:13.199Z,7.70
2023-01-08T00:03:40.415Z,7.70
2023-01-08T00:06:10.791Z,7.60
2023-01-08T00:08:37.547Z,7.60
2023-01-08T00:11:04.216Z,7.60
2023-01-08T00:13:30.899Z,7.60
2023-01-08T00:16:02.299Z,7.60
2023-01-08T00:18:29.379Z,7.70
2023-01-08T00:20:56.084Z,7.60
2023-01-08T00:23:23.064Z,7.60
2023-01-08T00:25:50.265Z,7.50
2023-01-08T00:28:17.286Z,7.50
2023-01-08T00:30:44.209Z,7.50
2023-01-08T00:33:12.007Z,7.50
2023-01-08T00:35:39.591Z,7.40
2023-01-08T00:38:07.096Z,7.50
2023-01-08T00:40:35.153Z,7.40
2023-01-08T00:43:02.126Z,7.50
2023-01-08T00:45:28.786Z,7.40
2023-01-08T00:47:55.464Z,7.40
2023-01-08T00:50:22.424Z,7.50
2023-01-08T00:52:49.142Z,7.50
2023-01-08T00:55:16.138Z,7.60
2023-01-08T00:57:42.883Z,7.60
2023-01-08T01:00:13.824Z,7.60
2023-01-08T01:02:40.792Z,7.60
2023-01-08T01:05:08.985Z,7.60
2023-01-08T01:07:35.737Z,7.60
2023-01-08T01:10:02.509Z,7.60
2023-01-08T01:12:29.932Z,7.60
2023-01-08T01:14:56.650Z,7.70
2023-01-08T01:17:23.420Z,7.80
2023-01-08T01:19:50.083Z,7.80
2023-01-08T01:22:16.764Z,7.90
2023-01-08T01:24:43.455Z,7.90
2023-01-08T01:27:10.139Z,8.00
2023-01-08T01:29:37.297Z,8.00
2023-01-08T01:32:04.542Z,8.00
2023-01-08T01:34:31.237Z,7.90
2023-01-08T01:36:57.903Z,7.80
2023-01-08T01:39:24.592Z,7.90
2023-01-08T01:41:53.157Z,7.80
2023-01-08T01:44:42.589Z,7.80
2023-01-08T01:47:38.050Z,7.80
2023-01-08T01:50:22.483Z,7.80
2023-01-08T01:52:52.899Z,7.80
2023-01-08T01:55:19.683Z,7.90
2023-01-08T01:57:52.113Z,7.90
2023-01-08T02:00:19.368Z,8.00
2023-01-08T02:02:46.110Z,8.00
2023-01-08T02:05:13.182Z,8.00
2023-01-08T02:08:03.393Z,7.90
2023-01-08T02:10:51.002Z,8.00
2023-01-08T02:13:27.130Z,8.00
2023-01-08T02:16:03.765Z,7.90
2023-01-08T02:18:41.235Z,7.90
2023-01-08T02:21:18.602Z,7.90
2023-01-08T02:24:03.088Z,7.90
2023-01-08T02:26:31.020Z,7.80
2023-01-08T02:29:15.468Z,7.70
2023-01-08T02:31:43.820Z,7.70
2023-01-08T02:34:11.628Z,7.70
2023-01-08T02:36:38.536Z,7.50
2023-01-08T02:40:04.664Z,7.50
2023-01-08T02:42:34.338Z,7.40
2023-01-08T02:45:14.983Z,7.40
2023-01-08T02:47:43.928Z,7.30
2023-01-08T02:50:26.375Z,7.40
2023-01-08T02:53:05.316Z,7.40
2023-01-08T02:55:35.138Z,7.40
2023-01-08T02:58:03.551Z,7.30
2023-01-08T03:00:31.334Z,7.40
2023-01-08T03:03:22.565Z,7.30
2023-01-08T03:05:53.107Z,7.40
2023-01-08T03:08:21.729Z,7.40
2023-01-08T03:10:55.395Z,7.30
2023-01-08T03:13:31.200Z,7.30
2023-01-08T03:16:00.845Z,7.30
2023-01-08T03:18:36.593Z,7.40
2023-01-08T03:21:06.031Z,7.40
2023-01-08T03:23:35.363Z,7.50
2023-01-08T03:26:05.023Z,7.50
2023-01-08T03:28:37.902Z,7.60
2023-01-08T03:31:06.374Z,7.60
2023-01-08T03:33:34.099Z,7.60
2023-01-08T03:36:03.580Z,7.60
2023-01-08T03:38:34.998Z,7.60
2023-01-08T03:41:06.034Z,7.60
2023-01-08T03:43:32.818Z,7.60
2023-01-08T03:46:03.450Z,7.50
2023-01-08T03:48:33.189Z,7.50
2023-01-08T03:51:00.023Z,7.50
2023-01-08T03:53:27.952Z,7.50
2023-01-08T03:55:56.094Z,7.50
2023-01-08T03:58:22.734Z,7.50
2023-01-08T04:00:49.389Z,7.40
2023-01-08T04:03:16.054Z,7.50
2023-01-08T04:05:42.747Z,7.40
2023-01-08T04:08:09.532Z,7.40
2023-01-08T04:10:36.322Z,7.30
2023-01-08T04:13:03.003Z,7.30
2023-01-08T04:15:29.760Z,7.30
2023-01-08T04:17:56.437Z,7.30
2023-01-08T04:20:23.131Z,7.30
2023-01-08T04:22:49.803Z,7.30
2023-01-08T04:25:16.635Z,7.30
2023-01-08T04:27:43.338Z,7.30
2023-01-08T04:30:11.107Z,7.30
2023-01-08T04:32:37.796Z,7.30
2023-01-08T04:35:05.059Z,7.30
2023-01-08T04:37:32.057Z,7.30
2023-01-08T04:39:58.836Z,7.30
2023-01-08T04:42:25.473Z,7.40
2023-01-08T04:44:52.131Z,7.40
2023-01-08T04:47:18.778Z,7.30
2023-01-08T04:49:45.512Z,7.30
2023-01-08T04:52:12.259Z,7.30
2023-01-08T04:54:38.911Z,7.20
2023-01-08T04:57:05.775Z,7.20
2023-01-08T04:59:32.556Z,7.30
2023-01-08T05:01:59.442Z,7.30
2023-01-08T05:04:26.309Z,7.30
2023-01-08T05:06:52.947Z,7.30
2023-01-08T05:09:19.644Z,7.20
2023-01-08T05:11:46.306Z,7.30
2023-01-08T05:14:13.006Z,7.30
2023-01-08T05:16:39.786Z,7.30
2023-01-08T05:19:06.499Z,7.30
2023-01-08T05:21:33.616Z,7.40
2023-01-08T05:24:00.335Z,7.40
2023-01-08T05:26:27.431Z,7.40
2023-01-08T05:28:54.127Z,7.40
2023-01-08T05:31:20.865Z,7.50
2023-01-08T05:33:47.857Z,7.50
2023-01-08T05:36:14.638Z,7.60
2023-01-08T05:38:41.533Z,7.50
2023-01-08T05:41:08.431Z,7.50
2023-01-08T05:43:36.095Z,7.50
2023-01-08T05:46:03.662Z,7.50
2023-01-08T05:48:33.115Z,7.40
2023-01-08T05:51:00.054Z,7.40
2023-01-08T05:53:27.076Z,7.40
2023-01-08T05:56:02.407Z,7.40
2023-01-08T05:58:29.164Z,7.40
2023-01-08T06:01:01.267Z,7.40
2023-01-08T06:03:27.925Z,7.40
2023-01-08T06:05:59.238Z,7.40
2023-01-08T06:08:26.034Z,7.40
2023-01-08T06:10:52.738Z,7.40
2023-01-08T06:13:19.412Z,7.50
2023-01-08T06:15:46.298Z,7.50
2023-01-08T06:18:12.988Z,7.50
2023-01-08T06:20:39.679Z,7.50
2023-01-08T06:23:06.393Z,7.50
2023-01-08T06:25:33.061Z,7.50
2023-01-08T06:27:59.811Z,7.50
2023-01-08T06:30:26.521Z,7.50
2023-01-08T06:33:00.357Z,7.60
2023-01-08T06:35:27.542Z,7.60
2023-01-08T06:37:57.640Z,7.60
2023-01-08T06:40:24.379Z,7.70
2023-01-08T06:42:51.079Z,7.70
2023-01-08T06:45:17.923Z,7.70
2023-01-08T06:47:44.592Z,7.70
2023-01-08T06:50:12.448Z,7.70
2023-01-08T06:52:39.422Z,7.70
2023-01-08T06:55:06.625Z,7.70
2023-01-08T06:57:33.295Z,7.70
2023-01-08T06:59:59.986Z,7.70
2023-01-08T07:02:26.705Z,7.70
2023-01-08T07:04:53.463Z,7.70
2023-01-08T07:07:20.095Z,7.70
2023-01-08T07:09:46.759Z,7.70
2023-01-08T07:12:14.492Z,7.70
2023-01-08T07:14:41.273Z,7.80
2023-01-08T07:17:08.056Z,7.80
2023-01-08T07:19:34.977Z,7.80
2023-01-08T07:22:01.721Z,7.80
2023-01-08T07:24:28.542Z,7.90
2023-01-08T07:26:55.232Z,7.80
2023-01-08T07:29:22.148Z,7.80
2023-01-08T07:31:48.805Z,7.90
2023-01-08T07:34:15.548Z,7.90
2023-01-08T07:36:42.211Z,7.90
2023-01-08T07:39:08.867Z,7.80
2023-01-08T07:41:35.571Z,7.80
2023-01-08T07:44:02.420Z,7.80
2023-01-08T07:46:29.138Z,7.80
2023-01-08T07:48:57.090Z,7.90
2023-01-08T07:51:23.776Z,7.90
2023-01-08T07:53:51.424Z,7.90
2023-01-08T07:56:19.575Z,8.00
2023-01-08T07:58:46.259Z,8.00
2023-01-08T08:01:14.790Z,8.00
2023-01-08T08:03:42.073Z,8.00
2023-01-08T08:06:09.527Z,8.00
2023-01-08T08:08:36.452Z,8.00
2023-01-08T08:11:03.230Z,8.00
2023-01-08T08:13:30.022Z,8.10
2023-01-08T08:16:04.468Z,8.10
2023-01-08T08:18:31.325Z,8.10
2023-01-08T08:20:58.098Z,8.20
2023-01-08T08:23:25.743Z,8.20
2023-01-08T08:25:52.542Z,8.10
2023-01-08T08:28:19.491Z,8.10
2023-01-08T08:30:46.200Z,8.20
2023-01-08T08:33:13.186Z,8.20
2023-01-08T08:35:40.163Z,8.30
2023-01-08T08:38:06.834Z,8.20
2023-01-08T08:40:33.557Z,8.20
2023-01-08T08:43:02.170Z,8.20
2023-01-08T08:45:29.782Z,8.30
2023-01-08T08:47:56.801Z,8.30
2023-01-08T08:50:24.030Z,8.30
2023-01-08T08:52:50.892Z,8.30
2023-01-08T08:55:18.020Z,8.30
2023-01-08T08:57:46.169Z,8.30
2023-01-08T09:00:14.101Z,8.30
2023-01-08T09:02:40.986Z,8.30
2023-01-08T09:05:08.224Z,8.30
2023-01-08T09:07:35.484Z,8.30
2023-01-08T09:10:03.194Z,8.30
2023-01-08T09:12:29.857Z,8.20
2023-01-08T09:14:57.147Z,8.20
2023-01-08T09:17:25.710Z,8.30
2023-01-08T09:19:52.440Z,8.20
2023-01-08T09:22:19.525Z,8.30
2023-01-08T09:24:46.244Z,8.30
2023-01-08T09:27:13.408Z,8.30
2023-01-08T09:29:40.085Z,8.40
2023-01-08T09:32:07.538Z,8.30
2023-01-08T09:34:36.200Z,8.40
2023-01-08T09:37:03.768Z,8.40
2023-01-08T09:39:31.110Z,8.40
2023-01-08T09:42:01.052Z,8.40
2023-01-08T09:44:33.940Z,8.50
2023-01-08T09:47:02.269Z,8.70
2023-01-08T09:49:44.251Z,8.70
2023-01-08T09:52:13.500Z,8.70
2023-01-08T09:54:41.156Z,8.80
2023-01-08T09:57:22.102Z,8.80
2023-01-08T09:59:49.971Z,8.80
2023-01-08T10:02:20.393Z,8.80
2023-01-08T10:04:58.990Z,8.90
2023-01-08T10:07:27.562Z,8.90
2023-01-08T10:09:55.692Z,8.90
2023-01-08T10:12:33.402Z,8.90
2023-01-08T10:15:06.813Z,8.90
2023-01-08T10:17:48.659Z,8.90
2023-01-08T10:20:19.131Z,8.90
2023-01-08T10:22:47.956Z,9.00
2023-01-08T10:25:20.563Z,9.00
2023-01-08T10:27:53.104Z,9.00
2023-01-08T10:30:22.781Z,9.00
2023-01-08T10:32:55.853Z,9.00
2023-01-08T10:35:40.939Z,9.00
2023-01-08T10:38:23.718Z,9.10
2023-01-08T10:40:51.489Z,9.10
2023-01-08T10:43:30.936Z,9.20
2023-01-08T10:46:01.123Z,9.20
2023-01-08T10:48:44.819Z,9.40
2023-01-08T10:51:16.053Z,9.40
2023-01-08T10:53:43.656Z,9.30
2023-01-08T10:56:22.718Z,9.30
2023-01-08T10:58:50.260Z,9.30
2023-01-08T11:01:31.703Z,9.40
2023-01-08T11:04:04.802Z,9.50
2023-01-08T11:06:39.537Z,9.50
2023-01-08T11:09:41.821Z,9.60
2023-01-08T11:12:35.724Z,9.70
2023-01-08T11:15:04.778Z,9.80
2023-01-08T11:17:33.907Z,9.90
2023-01-08T11:20:19.995Z,10.00
2023-01-08T11:22:46.818Z,10.00
2023-01-08T11:25:18.315Z,10.10
2023-01-08T11:27:45.578Z,10.20
2023-01-08T11:30:17.589Z,10.20
2023-01-08T11:33:00.427Z,10.30
2023-01-08T11:35:29.995Z,10.30
2023-01-08T11:38:01.844Z,10.30
2023-01-08T11:40:33.977Z,10.30
2023-01-08T11:43:30.540Z,10.20
2023-01-08T11:46:09.255Z,10.30
2023-01-08T11:48:48.690Z,10.30
2023-01-08T11:51:50.969Z,10.30
2023-01-08T11:54:54.266Z,10.30
2023-01-08T11:57:43.362Z,10.20
2023-01-08T12:01:03.133Z,10.30
2023-01-08T12:03:49.809Z,10.30
2023-01-08T12:06:37.835Z,10.40
2023-01-08T12:09:19.984Z,10.50
2023-01-08T12:12:21.225Z,10.70
2023-01-08T12:14:53.297Z,10.80
2023-01-08T12:17:35.119Z,10.90
2023-01-08T12:20:20.916Z,10.90
2023-01-08T12:22:55.869Z,11.10
2023-01-08T12:25:26.952Z,11.10
2023-01-08T12:28:15.173Z,11.20
2023-01-08T12:31:09.583Z,11.20
2023-01-08T12:33:51.266Z,11.30
2023-01-08T12:36:19.860Z,11.30
2023-01-08T12:38:55.550Z,11.20
2023-01-08T12:41:24.682Z,11.10
2023-01-08T12:44:04.660Z,11.00
2023-01-08T12:46:36.359Z,11.00
2023-01-08T12:49:06.184Z,10.90
2023-01-08T12:51:35.927Z,10.90
2023-01-08T12:54:27.528Z,10.80
2023-01-08T12:57:04.161Z,10.80
2023-01-08T12:59:54.127Z,10.80
2023-01-08T13:02:51.803Z,10.80
2023-01-08T13:05:18.626Z,10.80
2023-01-08T13:07:52.453Z,10.90
2023-01-08T13:10:49.577Z,10.90
2023-01-08T13:13:34.864Z,10.80
2023-01-08T13:16:11.256Z,10.80
2023-01-08T13:18:38.898Z,10.70
2023-01-08T13:21:07.100Z,10.80
2023-01-08T13:23:36.013Z,10.70
2023-01-08T13:26:05.470Z,10.60
2023-01-08T13:28:37.878Z,10.60
2023-01-08T13:31:28.206Z,10.50
2023-01-08T13:33:55.860Z,10.60
2023-01-08T13:36:25.865Z,10.60
2023-01-08T13:39:05.013Z,10.70
2023-01-08T13:41:35.142Z,10.80
2023-01-08T13:44:14.363Z,10.90
2023-01-08T13:46:41.783Z,11.00
2023-01-08T13:49:19.195Z,11.00
2023-01-08T13:51:47.400Z,11.00
2023-01-08T13:54:14.817Z,10.90
2023-01-08T13:56:43.592Z,10.90
2023-01-08T13:59:34.788Z,10.90
2023-01-08T14:02:01.707Z,10.80
2023-01-08T14:04:28.635Z,10.80
2023-01-08T14:07:14.297Z,10.80
2023-01-08T14:09:41.165Z,10.80
2023-01-08T14:12:16.020Z,10.80
2023-01-08T14:14:49.980Z,10.80
2023-01-08T14:17:18.405Z,10.80
2023-01-08T14:19:48.549Z,10.80
2023-01-08T14:22:21.852Z,10.80
2023-01-08T14:24:55.257Z,10.80
2023-01-08T14:27:25.639Z,10.80
2023-01-08T14:29:52.939Z,10.80
2023-01-08T14:32:30.765Z,10.80
2023-01-08T14:35:00.627Z,10.70
2023-01-08T14:37:27.356Z,10.80
2023-01-08T14:39:55.064Z,10.80
2023-01-08T14:42:47.083Z,10.80
2023-01-08T14:45:16.712Z,10.70
2023-01-08T14:47:45.822Z,10.70
2023-01-08T14:50:27.494Z,10.70
2023-01-08T14:52:59.745Z,10.70
2023-01-08T14:55:29.050Z,10.70
2023-01-08T14:57:56.773Z,10.60
2023-01-08T15:00:30.165Z,10.60
2023-01-08T15:02:57.275Z,10.60
2023-01-08T15:05:31.672Z,10.60
2023-01-08T15:08:21.335Z,10.50
2023-01-08T15:10:58.788Z,10.50
2023-01-08T15:13:32.344Z,10.60
2023-01-08T15:16:11.461Z,10.60
2023-01-08T15:18:44.486Z,10.50
2023-01-08T15:21:20.508Z,10.40
2023-01-08T15:23:54.689Z,10.40
2023-01-08T15:26:22.660Z,10.40
2023-01-08T15:29:05.051Z,10.40
2023-01-08T15:31:45.057Z,10.30
2023-01-08T15:34:12.086Z,10.30
2023-01-08T15:36:38.886Z,10.20
2023-01-08T15:39:06.022Z,10.20
2023-01-08T15:41:56.359Z,10.20
2023-01-08T15:44:23.516Z,10.20
2023-01-08T15:46:52.293Z,10.10
2023-01-08T15:49:19.045Z,10.10
2023-01-08T15:51:49.503Z,10.10
2023-01-08T15:54:16.463Z,10.00
2023-01-08T15:56:43.366Z,9.90
2023-01-08T15:59:11.398Z,9.90
2023-01-08T16:01:38.444Z,9.90
2023-01-08T16:04:05.395Z,9.90
2023-01-08T16:06:32.243Z,9.90
2023-01-08T16:09:00.422Z,9.90
2023-01-08T16:11:27.350Z,9.90
2023-01-08T16:13:54.862Z,9.90
2023-01-08T16:16:22.186Z,9.90
2023-01-08T16:18:49.277Z,9.90
2023-01-08T16:21:16.250Z,9.90
2023-01-08T16:23:42.919Z,9.80
2023-01-08T16:26:12.181Z,9.80
2023-01-08T16:28:38.952Z,9.80
2023-01-08T16:31:06.044Z,9.70
2023-01-08T16:33:32.783Z,9.70
2023-01-08T16:36:02.493Z,9.70
2023-01-08T16:38:30.961Z,9.70
2023-01-08T16:40:59.606Z,9.50
2023-01-08T16:43:28.790Z,9.50
2023-01-08T16:45:55.956Z,9.50
2023-01-08T16:48:23.250Z,9.50
2023-01-08T16:50:50.028Z,9.50
2023-01-08T16:53:21.827Z,9.40
2023-01-08T16:55:48.592Z,9.40
2023-01-08T16:58:15.318Z,9.40
2023-01-08T17:00:42.090Z,9.40
2023-01-08T17:03:08.808Z,9.40
2023-01-08T17:05:36.793Z,9.40
2023-01-08T17:08:03.757Z,9.40
2023-01-08T17:10:30.446Z,9.40
2023-01-08T17:12:57.144Z,9.30
2023-01-08T17:15:24.313Z,9.30
2023-01-08T17:17:51.022Z,9.30
2023-01-08T17:20:19.785Z,9.20
2023-01-08T17:22:47.009Z,9.20
2023-01-08T17:25:14.371Z,9.20
2023-01-08T17:27:42.064Z,9.30
2023-01-08T17:30:13.052Z,9.20
2023-01-08T17:32:39.951Z,9.20
2023-01-08T17:35:07.358Z,9.20
2023-01-08T17:37:34.525Z,9.20
2023-01-08T17:40:02.228Z,9.10
2023-01-08T17:42:30.197Z,9.10
2023-01-08T17:45:01.153Z,9.20
2023-01-08T17:47:30.582Z,9.20
2023-01-08T17:49:58.213Z,9.20
2023-01-08T17:52:26.058Z,9.30
2023-01-08T17:54:53.325Z,9.30
2023-01-08T17:57:21.331Z,9.20
2023-01-08T17:59:48.742Z,9.30
2023-01-08T18:02:16.756Z,9.30
2023-01-08T18:04:45.448Z,9.30
2023-01-08T18:07:12.878Z,9.30
2023-01-08T18:09:39.582Z,9.30
2023-01-08T18:12:06.780Z,9.20
2023-01-08T18:14:36.071Z,9.20
2023-01-08T18:17:03.111Z,9.20
2023-01-08T18:19:29.833Z,9.30
2023-01-08T18:21:57.177Z,9.20
2023-01-08T18:24:23.934Z,9.20
2023-01-08T18:26:50.639Z,9.20
2023-01-08T18:29:17.372Z,9.10
2023-01-08T18:31:46.165Z,9.10
2023-01-08T18:34:15.007Z,9.10
2023-01-08T18:36:42.003Z,9.10
2023-01-08T18:39:08.774Z,9.00
2023-01-08T18:41:54.215Z,9.00
2023-01-08T18:44:20.966Z,9.00
2023-01-08T18:46:48.287Z,9.00
2023-01-08T18:49:15.610Z,8.90
2023-01-08T18:51:43.163Z,8.90
2023-01-08T18:54:11.488Z,8.90
2023-01-08T18:56:38.435Z,8.80
2023-01-08T18:59:06.262Z,8.80
2023-01-08T19:01:34.953Z,8.80
2023-01-08T19:04:01.927Z,8.70
2023-01-08T19:06:28.630Z,8.80
2023-01-08T19:08:57.877Z,8.80
2023-01-08T19:11:24.838Z,8.80
2023-01-08T19:13:55.572Z,8.90
2023-01-08T19:16:22.568Z,8.90
2023-01-08T19:18:50.149Z,8.90
2023-01-08T19:21:18.993Z,8.90
2023-01-08T19:23:48.743Z,8.90
2023-01-08T19:26:15.700Z,8.90
2023-01-08T19:28:43.843Z,8.90
2023-01-08T19:31:16.123Z,8.90
2023-01-08T19:33:44.516Z,8.90
2023-01-08T19:36:14.106Z,8.80
2023-01-08T19:38:41.210Z,8.90
2023-01-08T19:41:28.830Z,8.90
2023-01-08T19:43:56.351Z,8.80
2023-01-08T19:46:23.254Z,8.90
2023-01-08T19:48:50.010Z,8.90
2023-01-08T19:51:16.761Z,8.90
2023-01-08T19:53:43.494Z,8.90
2023-01-08T19:56:13.249Z,8.90
2023-01-08T19:58:40.082Z,8.90
2023-01-08T20:01:12.321Z,8.90
2023-01-08T20:03:39.597Z,8.90
2023-01-08T20:06:08.434Z,8.90
2023-01-08T20:08:35.126Z,8.90
2023-01-08T20:11:12.900Z,8.90
2023-01-08T20:13:40.351Z,8.90
2023-01-08T20:16:09.455Z,8.90
2023-01-08T20:18:36.337Z,9.00
2023-01-08T20:21:24.008Z,8.90
2023-01-08T20:23:59.570Z,8.90
2023-01-08T20:26:27.948Z,8.90
2023-01-08T20:28:56.041Z,8.90
2023-01-08T20:31:26.266Z,8.90
2023-01-08T20:33:53.111Z,9.00
2023-01-08T20:36:22.336Z,9.00
2023-01-08T20:38:59.055Z,9.00
2023-01-08T20:41:26.626Z,9.00
2023-01-08T20:43:57.544Z,9.00
2023-01-08T20:46:28.508Z,8.90
2023-01-08T20:48:57.267Z,8.90
2023-01-08T20:51:24.240Z,8.90
2023-01-08T20:53:51.056Z,8.90
2023-01-08T20:56:18.019Z,8.90
2023-01-08T20:58:46.925Z,8.90
2023-01-08T21:01:24.713Z,8.80
2023-01-08T21:03:55.603Z,8.90
2023-01-08T21:06:25.035Z,8.90
2023-01-08T21:08:55.405Z,8.90
2023-01-08T21:11:23.732Z,8.90
2023-01-08T21:13:51.142Z,8.90
2023-01-08T21:16:24.393Z,8.80
2023-01-08T21:18:53.961Z,8.70
2023-01-08T21:21:23.966Z,8.70
2023-01-08T21:23:50.980Z,8.70
2023-01-08T21:26:18.729Z,8.70
2023-01-08T21:28:46.670Z,8.70
2023-01-08T21:31:16.842Z,8.70
2023-01-08T21:33:45.674Z,8.70
2023-01-08T21:36:15.979Z,8.60
2023-01-08T21:38:43.183Z,8.60
2023-01-08T21:41:33.043Z,8.60
2023-01-08T21:44:19.377Z,8.60
2023-01-08T21:46:46.691Z,8.60
2023-01-08T21:49:13.648Z,8.60
2023-01-08T21:51:59.072Z,8.60
2023-01-08T21:54:25.830Z,8.50
2023-01-08T21:56:52.695Z,8.50
2023-01-08T21:59:19.449Z,8.50
2023-01-08T22:01:46.462Z,8.40
2023-01-08T22:04:13.485Z,8.40
2023-01-08T22:06:42.693Z,8.50
2023-01-08T22:09:10.135Z,8.40
2023-01-08T22:11:37.298Z,8.50
2023-01-08T22:14:04.094Z,8.40
2023-01-08T22:16:30.887Z,8.40
2023-01-08T22:18:57.841Z,8.40
2023-01-08T22:21:24.545Z,8.50
2023-01-08T22:23:51.348Z,8.40
2023-01-08T22:26:20.136Z,8.40
2023-01-08T22:28:47.011Z,8.50
2023-01-08T22:31:16.250Z,8.50
2023-01-08T22:33:43.213Z,8.40
2023-01-08T22:36:12.602Z,8.50
2023-01-08T22:38:39.896Z,8.50
2023-01-08T22:41:17.738Z,8.50
2023-01-08T22:43:44.526Z,8.50
2023-01-08T22:46:16.239Z,8.40
2023-01-08T22:48:43.816Z,8.50
2023-01-08T22:51:11.253Z,8.50
2023-01-08T22:53:38.187Z,8.40
2023-01-08T22:56:12.075Z,8.40
2023-01-08T22:58:40.676Z,8.40
2023-01-08T23:01:15.906Z,8.40
2023-01-08T23:03:44.169Z,8.40
2023-01-08T23:06:16.031Z,8.30
2023-01-08T23:08:43.769Z,8.30
2023-01-08T23:11:13.135Z,8.30
2023-01-08T23:13:40.510Z,8.30
2023-01-08T23:16:09.035Z,8.30
2023-01-08T23:18:36.938Z,8.30
2023-01-08T23:21:09.342Z,8.30
2023-01-08T23:23:36.268Z,8.30
2023-01-08T23:26:12.884Z,8.30
2023-01-08T23:28:39.827Z,8.30
2023-01-08T23:31:15.074Z,8.20
2023-01-08T23:33:42.016Z,8.20
2023-01-08T23:36:09.699Z,8.30
2023-01-08T23:38:36.488Z,8.20
2023-01-08T23:41:06.546Z,8.20
2023-01-08T23:43:33.339Z,8.20
2023-01-08T23:46:04.291Z,8.20
2023-01-08T23:48:31.310Z,8.20
2023-01-08T23:50:58.368Z,8.10
2023-01-08T23:53:25.520Z,8.10
2023-01-08T23:55:52.312Z,8.20
2023-01-08T23:58:19.251Z,8.20
